sensor_id;sensor_type;location;lat;lon;timestamp;pressure;altitude;pressure_sealevel;temperature;humidity
8140;BME280;4111;50.972;7.072;2022-10-16T00:01:15;100656.84;;;15.65;100.00
8140;BME280;4111;50.972;7.072;2022-10-16T00:03:42;100654.94;;;15.66;100.00
8140;BME280;4111;50.972;7.072;2022-10-16T00:06:10;100667.78;;;15.65;100.00
8140;BME280;4111;50.972;7.072;2022-10-16T00:08:37;100676.53;;;15.67;100.00
8140;BME280;4111;50.972;7.072;2022-10-16T00:11:17;100680.66;;;15.70;100.00
8140;BME280;4111;50.972;7.072;2022-10-16T00:13:44;100677.13;;;15.64;100.00
8140;BME280;4111;50.972;7.072;2022-10-16T00:16:12;100677.13;;;15.64;100.00
8140;BME280;4111;50.972;7.072;2022-10-16T00:18:39;100677.13;;;15.64;100.00
8140;BME280;4111;50.972;7.072;2022-10-16T00:21:08;100674.38;;;15.64;100.00
8140;BME280;4111;50.972;7.072;2022-10-16T00:23:35;100678.19;;;15.63;100.00
8140;BME280;4111;50.972;7.072;2022-10-16T00:26:05;100677.13;;;15.64;100.00
8140;BME280;4111;50.972;7.072;2022-10-16T00:28:33;100685.06;;;15.66;100.00
8140;BME280;4111;50.972;7.072;2022-10-16T00:31:05;100690.25;;;15.62;100.00
8140;BME280;4111;50.972;7.072;2022-10-16T00:33:32;100694.09;;;15.61;100.00
8140;BME280;4111;50.972;7.072;2022-10-16T00:35:59;100688.88;;;15.60;100.00
8140;BME280;4111;50.972;7.072;2022-10-16T00:38:26;100681.78;;;15.59;100.00
8140;BME280;4111;50.972;7.072;2022-10-16T00:40:52;100673.91;;;15.52;100.00
8140;BME280;4111;50.972;7.072;2022-10-16T00:43:55;100678.78;;;15.55;100.00
8140;BME280;4111;50.972;7.072;2022-10-16T00:46:37;100684.31;;;15.50;100.00
8140;BME280;4111;50.972;7.072;2022-10-16T00:49:09;100679.59;;;15.56;100.00
8140;BME280;4111;50.972;7.072;2022-10-16T00:54:04;100669.56;;;15.41;100.00
8140;BME280;4111;50.972;7.072;2022-10-16T00:56:31;100682.72;;;15.34;100.00
8140;BME280;4111;50.972;7.072;2022-10-16T00:59:04;100681.66;;;15.30;100.00
8140;BME280;4111;50.972;7.072;2022-10-16T01:01:33;100674.03;;;15.21;100.00
8140;BME280;4111;50.972;7.072;2022-10-16T01:04:00;100678.41;;;15.17;100.00
8140;BME280;4111;50.972;7.072;2022-10-16T01:09:36;100683.88;;;15.17;100.00
8140;BME280;4111;50.972;7.072;2022-10-16T01:12:26;100683.34;;;15.10;100.00
8140;BME280;4111;50.972;7.072;2022-10-16T01:17:45;100686.09;;;15.10;100.00
8140;BME280;4111;50.972;7.072;2022-10-16T01:20:23;100679.53;;;15.11;100.00
8140;BME280;4111;50.972;7.072;2022-10-16T01:26:10;100686.63;;;15.12;100.00
8140;BME280;4111;50.972;7.072;2022-10-16T01:28:44;100690.47;;;15.11;100.00
8140;BME280;4111;50.972;7.072;2022-10-16T01:31:18;100701.94;;;15.08;100.00
8140;BME280;4111;50.972;7.072;2022-10-16T01:33:47;100697.06;;;15.05;100.00
8140;BME280;4111;50.972;7.072;2022-10-16T01:36:21;100689.13;;;15.03;100.00
8140;BME280;4111;50.972;7.072;2022-10-16T01:38:52;100680.91;;;15.03;100.00
8140;BME280;4111;50.972;7.072;2022-10-16T01:41:28;100682.53;;;15.10;100.00
8140;BME280;4111;50.972;7.072;2022-10-16T01:44:01;100691.28;;;15.06;100.00
8140;BME280;4111;50.972;7.072;2022-10-16T01:46:30;100689.41;;;15.02;100.00
8140;BME280;4111;50.972;7.072;2022-10-16T01:48:59;100706.06;;;15.00;100.00
8140;BME280;4111;50.972;7.072;2022-10-16T01:51:28;100694.34;;;14.90;100.00
8140;BME280;4111;50.972;7.072;2022-10-16T01:53:58;100691.03;;;14.98;100.00
8140;BME280;4111;50.972;7.072;2022-10-16T01:56:27;100697.31;;;14.98;100.00
8140;BME280;4111;50.972;7.072;2022-10-16T01:59:07;100705.25;;;14.95;100.00
8140;BME280;4111;50.972;7.072;2022-10-16T02:01:38;100707.47;;;14.87;100.00
8140;BME280;4111;50.972;7.072;2022-10-16T02:04:23;100694.34;;;14.84;100.00
8140;BME280;4111;50.972;7.072;2022-10-16T02:06:52;100694.34;;;14.84;100.00
8140;BME280;4111;50.972;7.072;2022-10-16T02:09:19;100705.81;;;14.86;100.00
8140;BME280;4111;50.972;7.072;2022-10-16T02:11:45;100703.09;;;14.86;100.00
8140;BME280;4111;50.972;7.072;2022-10-16T02:14:12;100696.81;;;14.81;100.00
8140;BME280;4111;50.972;7.072;2022-10-16T02:16:41;100695.47;;;14.83;100.00
8140;BME280;4111;50.972;7.072;2022-10-16T02:19:08;100714.03;;;14.92;100.00
8140;BME280;4111;50.972;7.072;2022-10-16T02:29:41;100704.75;;;14.82;100.00
8140;BME280;4111;50.972;7.072;2022-10-16T02:32:16;100711.28;;;14.86;100.00
8140;BME280;4111;50.972;7.072;2022-10-16T02:34:48;100711.31;;;14.81;100.00
8140;BME280;4111;50.972;7.072;2022-10-16T02:37:16;100706.94;;;14.85;100.00
8140;BME280;4111;50.972;7.072;2022-10-16T02:39:44;100709.66;;;14.85;100.00
8140;BME280;4111;50.972;7.072;2022-10-16T02:42:14;100711.84;;;14.88;100.00
8140;BME280;4111;50.972;7.072;2022-10-16T02:44:41;100716.50;;;14.93;100.00
8140;BME280;4111;50.972;7.072;2022-10-16T02:47:08;100726.03;;;14.96;100.00
8140;BME280;4111;50.972;7.072;2022-10-16T02:49:35;100724.94;;;15.02;100.00
8140;BME280;4111;50.972;7.072;2022-10-16T02:52:01;100718.38;;;14.98;100.00
8140;BME280;4111;50.972;7.072;2022-10-16T02:54:28;100710.72;;;15.00;100.00
8140;BME280;4111;50.972;7.072;2022-10-16T02:56:54;100712.66;;;14.94;100.00
8140;BME280;4111;50.972;7.072;2022-10-16T02:59:21;100709.66;;;14.96;100.00
8140;BME280;4111;50.972;7.072;2022-10-16T03:01:47;100724.94;;;15.02;100.00
8140;BME280;4111;50.972;7.072;2022-10-16T03:04:13;100727.94;;;15.05;100.00
8140;BME280;4111;50.972;7.072;2022-10-16T03:06:41;100716.16;;;15.10;100.00
8140;BME280;4111;50.972;7.072;2022-10-16T03:09:07;100727.66;;;15.02;100.00
8140;BME280;4111;50.972;7.072;2022-10-16T03:11:34;100720.28;;;15.02;100.00
8140;BME280;4111;50.972;7.072;2022-10-16T03:14:00;100715.09;;;14.96;100.00
8140;BME280;4111;50.972;7.072;2022-10-16T03:16:27;100709.66;;;14.96;100.00
8140;BME280;4111;50.972;7.072;2022-10-16T03:18:53;100701.72;;;14.94;100.00
8140;BME280;4111;50.972;7.072;2022-10-16T03:21:19;100700.09;;;14.93;100.00
8140;BME280;4111;50.972;7.072;2022-10-16T03:23:46;100695.44;;;14.94;100.00
8140;BME280;4111;50.972;7.072;2022-10-16T03:26:12;100684.50;;;14.94;100.00
8140;BME280;4111;50.972;7.072;2022-10-16T03:28:39;100687.22;;;14.88;100.00
8140;BME280;4111;50.972;7.072;2022-10-16T03:31:05;100695.72;;;14.87;100.00
8140;BME280;4111;50.972;7.072;2022-10-16T03:33:32;100701.19;;;14.87;100.00
8140;BME280;4111;50.972;7.072;2022-10-16T03:35:58;100717.84;;;14.91;100.00
8140;BME280;4111;50.972;7.072;2022-10-16T03:38:24;100706.38;;;14.94;100.00
8140;BME280;4111;50.972;7.072;2022-10-16T03:40:51;100691.59;;;14.95;100.00
8140;BME280;4111;50.972;7.072;2022-10-16T03:43:17;100692.69;;;14.88;100.00
8140;BME280;4111;50.972;7.072;2022-10-16T03:45:44;100693.28;;;14.85;100.00
8140;BME280;4111;50.972;7.072;2022-10-16T03:48:10;100703.63;;;14.88;100.00
8140;BME280;4111;50.972;7.072;2022-10-16T03:50:36;100707.19;;;14.94;100.00
8140;BME280;4111;50.972;7.072;2022-10-16T03:53:03;100717.84;;;14.96;100.00
8140;BME280;4111;50.972;7.072;2022-10-16T03:55:29;100717.31;;;14.94;100.00
8140;BME280;4111;50.972;7.072;2022-10-16T03:57:56;100718.94;;;14.84;100.00
8140;BME280;4111;50.972;7.072;2022-10-16T04:00:22;100727.16;;;14.90;100.00
8140;BME280;4111;50.972;7.072;2022-10-16T04:02:49;100744.38;;;14.90;100.00
8140;BME280;4111;50.972;7.072;2022-10-16T04:05:15;100744.06;;;14.97;100.00
8140;BME280;4111;50.972;7.072;2022-10-16T04:07:41;100751.19;;;14.98;100.00
8140;BME280;4111;50.972;7.072;2022-10-16T04:10:08;100755.31;;;14.95;100.00
8140;BME280;4111;50.972;7.072;2022-10-16T04:12:35;100729.88;;;14.84;100.00
8140;BME280;4111;50.972;7.072;2022-10-16T04:15:01;100755.31;;;14.85;100.00
8140;BME280;4111;50.972;7.072;2022-10-16T04:17:27;100749.56;;;14.86;100.00
8140;BME280;4111;50.972;7.072;2022-10-16T04:19:54;100743.28;;;14.91;100.00
8140;BME280;4111;50.972;7.072;2022-10-16T04:22:21;100741.91;;;14.94;100.00
8140;BME280;4111;50.972;7.072;2022-10-16T04:24:47;100752.28;;;14.97;100.00
8140;BME280;4111;50.972;7.072;2022-10-16T04:27:14;100764.59;;;14.94;100.00
8140;BME280;4111;50.972;7.072;2022-10-16T04:29:40;100762.13;;;14.93;100.00
8140;BME280;4111;50.972;7.072;2022-10-16T04:32:08;100764.88;;;14.93;100.00
8140;BME280;4111;50.972;7.072;2022-10-16T04:34:35;100767.63;;;14.87;100.00
8140;BME280;4111;50.972;7.072;2022-10-16T04:37:01;100768.44;;;14.88;100.00
8140;BME280;4111;50.972;7.072;2022-10-16T04:39:28;100761.03;;;14.88;100.00
8140;BME280;4111;50.972;7.072;2022-10-16T04:41:54;100759.94;;;14.84;100.00
8140;BME280;4111;50.972;7.072;2022-10-16T04:44:20;100761.06;;;14.83;100.00
8140;BME280;4111;50.972;7.072;2022-10-16T04:46:47;100768.16;;;14.84;100.00
8140;BME280;4111;50.972;7.072;2022-10-16T04:49:13;100771.72;;;14.85;100.00
8140;BME280;4111;50.972;7.072;2022-10-16T04:51:40;100767.88;;;14.86;100.00
8140;BME280;4111;50.972;7.072;2022-10-16T04:54:06;100773.06;;;14.82;100.00
8140;BME280;4111;50.972;7.072;2022-10-16T04:56:33;100762.72;;;14.79;100.00
8140;BME280;4111;50.972;7.072;2022-10-16T04:59:06;100772.53;;;14.80;100.00
8140;BME280;4111;50.972;7.072;2022-10-16T05:01:32;100771.97;;;14.78;100.00
8140;BME280;4111;50.972;7.072;2022-10-16T05:03:58;100775.25;;;14.80;100.00
8140;BME280;4111;50.972;7.072;2022-10-16T05:06:25;100782.94;;;14.83;100.00
8140;BME280;4111;50.972;7.072;2022-10-16T05:08:51;100785.66;;;14.78;100.00
8140;BME280;4111;50.972;7.072;2022-10-16T05:11:18;100791.13;;;14.83;100.00
8140;BME280;4111;50.972;7.072;2022-10-16T05:13:44;100797.69;;;14.87;100.00
8140;BME280;4111;50.972;7.072;2022-10-16T05:16:11;100793.31;;;14.86;100.00
8140;BME280;4111;50.972;7.072;2022-10-16T05:18:37;100793.31;;;14.86;100.00
8140;BME280;4111;50.972;7.072;2022-10-16T05:21:03;100795.50;;;14.84;100.00
8140;BME280;4111;50.972;7.072;2022-10-16T05:23:30;100798.78;;;14.86;100.00
8140;BME280;4111;50.972;7.072;2022-10-16T05:25:57;100810.81;;;14.85;100.00
8140;BME280;4111;50.972;7.072;2022-10-16T05:28:26;100809.16;;;14.90;100.00
8140;BME280;4111;50.972;7.072;2022-10-16T05:30:54;100800.69;;;14.91;100.00
8140;BME280;4111;50.972;7.072;2022-10-16T05:33:21;100795.50;;;14.84;100.00
8140;BME280;4111;50.972;7.072;2022-10-16T05:35:47;100802.03;;;14.88;100.00
8140;BME280;4111;50.972;7.072;2022-10-16T05:38:14;100813.53;;;14.85;100.00
8140;BME280;4111;50.972;7.072;2022-10-16T05:40:40;100816.56;;;14.89;100.00
8140;BME280;4111;50.972;7.072;2022-10-16T05:43:06;100822.56;;;14.86;100.00
8140;BME280;4111;50.972;7.072;2022-10-16T05:45:33;100823.66;;;14.90;100.00
8140;BME280;4111;50.972;7.072;2022-10-16T05:48:00;100831.56;;;14.97;100.00
8140;BME280;4111;50.972;7.072;2022-10-16T05:50:27;100813.81;;;14.99;100.00
8140;BME280;4111;50.972;7.072;2022-10-16T05:52:53;100807.81;;;14.97;100.00
8140;BME280;4111;50.972;7.072;2022-10-16T05:55:19;100823.13;;;14.93;100.00
8140;BME280;4111;50.972;7.072;2022-10-16T05:57:46;100834.88;;;14.94;100.00
8140;BME280;4111;50.972;7.072;2022-10-16T06:00:12;100832.13;;;14.88;100.00
8140;BME280;4111;50.972;7.072;2022-10-16T06:02:39;100845.78;;;14.88;100.00
8140;BME280;4111;50.972;7.072;2022-10-16T06:05:05;100849.06;;;14.91;100.00
8140;BME280;4111;50.972;7.072;2022-10-16T06:07:35;100858.94;;;14.92;100.00
8140;BME280;4111;50.972;7.072;2022-10-16T06:10:03;100856.72;;;14.88;100.00
8140;BME280;4111;50.972;7.072;2022-10-16T06:12:30;100864.13;;;14.93;100.00
8140;BME280;4111;50.972;7.072;2022-10-16T06:14:56;100863.03;;;14.94;100.00
8140;BME280;4111;50.972;7.072;2022-10-16T06:17:22;100867.69;;;14.94;100.00
8140;BME280;4111;50.972;7.072;2022-10-16T06:19:49;100874.22;;;14.82;100.00
8140;BME280;4111;50.972;7.072;2022-10-16T06:22:16;100878.59;;;14.78;100.00
8140;BME280;4111;50.972;7.072;2022-10-16T06:24:42;100872.56;;;14.76;100.00
8140;BME280;4111;50.972;7.072;2022-10-16T06:27:08;100870.41;;;14.73;100.00
8140;BME280;4111;50.972;7.072;2022-10-16T06:29:38;100868.22;;;14.75;100.00
8140;BME280;4111;50.972;7.072;2022-10-16T06:32:04;100863.84;;;14.79;100.00
8140;BME280;4111;50.972;7.072;2022-10-16T06:34:31;100874.50;;;14.86;100.00
8140;BME280;4111;50.972;7.072;2022-10-16T06:36:57;100888.44;;;14.84;100.00
8140;BME280;4111;50.972;7.072;2022-10-16T06:39:23;100888.16;;;14.81;100.00
8140;BME280;4111;50.972;7.072;2022-10-16T06:41:50;100894.75;;;14.85;100.00
8140;BME280;4111;50.972;7.072;2022-10-16T06:44:16;100899.38;;;14.84;100.00
8140;BME280;4111;50.972;7.072;2022-10-16T06:46:43;100913.84;;;14.80;100.00
8140;BME280;4111;50.972;7.072;2022-10-16T06:49:09;100907.56;;;14.79;100.00
8140;BME280;4111;50.972;7.072;2022-10-16T06:51:35;100908.69;;;14.83;100.00
8140;BME280;4111;50.972;7.072;2022-10-16T06:54:08;100918.53;;;14.90;100.00
8140;BME280;4111;50.972;7.072;2022-10-16T06:56:35;100925.38;;;14.97;100.00
8140;BME280;4111;50.972;7.072;2022-10-16T06:59:02;100926.75;;;15.05;100.00
8140;BME280;4111;50.972;7.072;2022-10-16T07:01:29;100933.31;;;15.09;100.00
8140;BME280;4111;50.972;7.072;2022-10-16T07:03:56;100937.16;;;15.13;100.00
8140;BME280;4111;50.972;7.072;2022-10-16T07:06:25;100943.16;;;15.20;100.00
8140;BME280;4111;50.972;7.072;2022-10-16T07:08:52;100936.59;;;15.21;100.00
8140;BME280;4111;50.972;7.072;2022-10-16T07:11:21;100943.44;;;15.29;100.00
8140;BME280;4111;50.972;7.072;2022-10-16T07:13:49;100951.38;;;15.31;100.00
8140;BME280;4111;50.972;7.072;2022-10-16T07:16:21;100939.06;;;15.33;100.00
8140;BME280;4111;50.972;7.072;2022-10-16T07:18:48;100944.81;;;15.37;100.00
8140;BME280;4111;50.972;7.072;2022-10-16T07:21:18;100961.75;;;15.44;100.00
8140;BME280;4111;50.972;7.072;2022-10-16T07:23:50;100961.22;;;15.57;100.00
8140;BME280;4111;50.972;7.072;2022-10-16T07:26:17;100967.53;;;15.63;100.00
8140;BME280;4111;50.972;7.072;2022-10-16T07:28:43;100979.81;;;15.65;100.00
8140;BME280;4111;50.972;7.072;2022-10-16T07:31:12;100982.56;;;15.71;100.00
8140;BME280;4111;50.972;7.072;2022-10-16T07:33:41;100992.97;;;15.74;100.00
8140;BME280;4111;50.972;7.072;2022-10-16T07:36:11;100983.38;;;15.71;100.00
8140;BME280;4111;50.972;7.072;2022-10-16T07:38:42;100984.50;;;15.70;100.00
8140;BME280;4111;50.972;7.072;2022-10-16T07:41:11;100987.50;;;15.74;100.00
8140;BME280;4111;50.972;7.072;2022-10-16T07:43:38;100991.88;;;15.70;100.00
8140;BME280;4111;50.972;7.072;2022-10-16T07:46:05;100995.72;;;15.79;100.00
8140;BME280;4111;50.972;7.072;2022-10-16T07:48:33;101001.47;;;15.88;100.00
8140;BME280;4111;50.972;7.072;2022-10-16T07:51:05;101003.41;;;15.82;100.00
8140;BME280;4111;50.972;7.072;2022-10-16T07:53:32;101009.97;;;15.86;100.00
8140;BME280;4111;50.972;7.072;2022-10-16T07:56:03;101014.63;;;15.91;100.00
8140;BME280;4111;50.972;7.072;2022-10-16T07:58:30;101019.25;;;15.95;100.00
8140;BME280;4111;50.972;7.072;2022-10-16T08:00:57;101024.19;;;16.03;100.00
8140;BME280;4111;50.972;7.072;2022-10-16T08:03:25;101033.78;;;16.06;100.00
8140;BME280;4111;50.972;7.072;2022-10-16T08:05:51;101027.47;;;16.05;100.00
8140;BME280;4111;50.972;7.072;2022-10-16T08:08:18;101028.56;;;15.99;100.00
8140;BME280;4111;50.972;7.072;2022-10-16T08:10:45;101043.06;;;16.05;100.00
8140;BME280;4111;50.972;7.072;2022-10-16T08:13:11;101042.22;;;16.15;100.00
8140;BME280;4111;50.972;7.072;2022-10-16T08:15:42;101036.19;;;16.23;100.00
8140;BME280;4111;50.972;7.072;2022-10-16T08:18:09;101048.78;;;16.39;100.00
8140;BME280;4111;50.972;7.072;2022-10-16T08:20:36;101046.28;;;16.48;100.00
8140;BME280;4111;50.972;7.072;2022-10-16T08:23:02;101049.56;;;16.50;100.00
8140;BME280;4111;50.972;7.072;2022-10-16T08:25:29;101051.44;;;16.65;100.00
8140;BME280;4111;50.972;7.072;2022-10-16T08:27:55;101054.16;;;16.70;100.00
8140;BME280;4111;50.972;7.072;2022-10-16T08:30:23;101048.09;;;16.83;100.00
8140;BME280;4111;50.972;7.072;2022-10-16T08:32:50;101056.59;;;16.87;100.00
8140;BME280;4111;50.972;7.072;2022-10-16T08:35:16;101061.16;;;17.02;100.00
8140;BME280;4111;50.972;7.072;2022-10-16T08:37:43;101065.25;;;17.10;100.00
8140;BME280;4111;50.972;7.072;2022-10-16T08:40:18;101074.34;;;17.05;100.00
8140;BME280;4111;50.972;7.072;2022-10-16T08:46:18;101076.19;;;17.15;100.00
8140;BME280;4111;50.972;7.072;2022-10-16T08:48:50;101082.50;;;17.20;99.31
8140;BME280;4111;50.972;7.072;2022-10-16T08:51:24;101083.78;;;17.33;99.44
8140;BME280;4111;50.972;7.072;2022-10-16T08:53:55;101083.69;;;17.43;99.16
8140;BME280;4111;50.972;7.072;2022-10-16T08:56:23;101084.19;;;17.56;98.59
8140;BME280;4111;50.972;7.072;2022-10-16T08:58:51;101080.84;;;17.64;97.99
8140;BME280;4111;50.972;7.072;2022-10-16T09:01:40;101085.44;;;17.74;97.35
8140;BME280;4111;50.972;7.072;2022-10-16T09:07:38;101101.25;;;17.92;95.79
8140;BME280;4111;50.972;7.072;2022-10-16T09:10:50;101106.41;;;17.99;94.39
8140;BME280;4111;50.972;7.072;2022-10-16T09:13:33;101102.81;;;18.03;93.40
8140;BME280;4111;50.972;7.072;2022-10-16T09:19:01;101115.94;;;18.12;91.05
8140;BME280;4111;50.972;7.072;2022-10-16T09:21:35;101108.19;;;18.19;90.06
8140;BME280;4111;50.972;7.072;2022-10-16T09:24:14;101104.19;;;18.30;89.95
8140;BME280;4111;50.972;7.072;2022-10-16T09:26:42;101103.59;;;18.38;88.84
8140;BME280;4111;50.972;7.072;2022-10-16T09:29:13;101099.19;;;18.37;86.12
8140;BME280;4111;50.972;7.072;2022-10-16T09:31:41;101097.47;;;18.47;85.49
8140;BME280;4111;50.972;7.072;2022-10-16T09:34:20;101098.97;;;18.58;84.46
8140;BME280;4111;50.972;7.072;2022-10-16T09:36:51;101106.88;;;18.65;84.10
8140;BME280;4111;50.972;7.072;2022-10-16T09:39:17;101101.63;;;18.68;83.58
8140;BME280;4111;50.972;7.072;2022-10-16T09:41:45;101113.69;;;18.72;82.71
8140;BME280;4111;50.972;7.072;2022-10-16T09:44:22;101107.28;;;18.77;81.28
8140;BME280;4111;50.972;7.072;2022-10-16T09:47:04;101114.22;;;18.74;79.95
8140;BME280;4111;50.972;7.072;2022-10-16T09:49:32;101110.94;;;18.72;79.27
8140;BME280;4111;50.972;7.072;2022-10-16T09:52:06;101111.47;;;18.74;78.90
8140;BME280;4111;50.972;7.072;2022-10-16T09:54:36;101120.00;;;18.73;78.17
8140;BME280;4111;50.972;7.072;2022-10-16T09:57:07;101124.06;;;18.80;78.80
8140;BME280;4111;50.972;7.072;2022-10-16T09:59:34;101118.00;;;18.78;77.79
8140;BME280;4111;50.972;7.072;2022-10-16T10:02:04;101123.41;;;18.89;77.56
8140;BME280;4111;50.972;7.072;2022-10-16T10:04:45;101131.78;;;19.02;78.06
8140;BME280;4111;50.972;7.072;2022-10-16T10:07:26;101122.59;;;19.12;77.72
8140;BME280;4111;50.972;7.072;2022-10-16T10:09:55;101121.13;;;19.20;77.40
8140;BME280;4111;50.972;7.072;2022-10-16T10:12:30;101122.53;;;19.17;76.00
8140;BME280;4111;50.972;7.072;2022-10-16T10:15:04;101115.66;;;19.15;75.30
8140;BME280;4111;50.972;7.072;2022-10-16T10:17:32;101104.88;;;19.18;75.81
8140;BME280;4111;50.972;7.072;2022-10-16T10:20:01;101119.41;;;19.24;75.10
8140;BME280;4111;50.972;7.072;2022-10-16T10:22:42;101116.84;;;19.09;73.77
8140;BME280;4111;50.972;7.072;2022-10-16T10:28:10;101108.63;;;19.28;74.23
8140;BME280;4111;50.972;7.072;2022-10-16T10:33:35;101091.81;;;19.48;72.94
8140;BME280;4111;50.972;7.072;2022-10-16T10:50:03;101119.50;;;19.38;71.45
8140;BME280;4111;50.972;7.072;2022-10-16T10:52:42;101121.63;;;19.41;71.05
8140;BME280;4111;50.972;7.072;2022-10-16T11:03:46;101119.50;;;19.76;70.04
8140;BME280;4111;50.972;7.072;2022-10-16T11:06:43;101108.41;;;19.81;70.15
8140;BME280;4111;50.972;7.072;2022-10-16T11:09:15;101109.06;;;19.92;69.95
8140;BME280;4111;50.972;7.072;2022-10-16T11:11:48;101115.03;;;19.80;68.87
8140;BME280;4111;50.972;7.072;2022-10-16T11:14:19;101121.59;;;19.84;69.27
8140;BME280;4111;50.972;7.072;2022-10-16T11:16:54;101116.06;;;19.84;68.84
8140;BME280;4111;50.972;7.072;2022-10-16T11:22:13;101121.81;;;19.88;69.17
8140;BME280;4111;50.972;7.072;2022-10-16T11:24:46;101123.28;;;19.99;68.90
8140;BME280;4111;50.972;7.072;2022-10-16T11:27:17;101132.38;;;19.99;67.93
8140;BME280;4111;50.972;7.072;2022-10-16T11:29:55;101125.88;;;20.09;67.71
8140;BME280;4111;50.972;7.072;2022-10-16T11:32:27;101135.63;;;20.20;67.91
8140;BME280;4111;50.972;7.072;2022-10-16T11:35:00;101126.03;;;20.32;68.03
8140;BME280;4111;50.972;7.072;2022-10-16T11:37:42;101136.06;;;20.41;66.68
8140;BME280;4111;50.972;7.072;2022-10-16T11:40:40;101129.88;;;20.50;66.20
8140;BME280;4111;50.972;7.072;2022-10-16T11:45:59;101127.50;;;20.57;64.54
8140;BME280;4111;50.972;7.072;2022-10-16T11:48:35;101134.88;;;20.62;64.61
8140;BME280;4111;50.972;7.072;2022-10-16T11:54:02;101131.03;;;20.76;64.60
8140;BME280;4111;50.972;7.072;2022-10-16T11:56:32;101142.66;;;20.59;64.12
8140;BME280;4111;50.972;7.072;2022-10-16T11:59:23;101146.72;;;20.48;64.12
8140;BME280;4111;50.972;7.072;2022-10-16T12:05:40;101148.53;;;20.53;64.90
8140;BME280;4111;50.972;7.072;2022-10-16T12:07:45;101138.25;;;20.58;64.95
8140;BME280;4111;50.972;7.072;2022-10-16T12:10:23;101132.03;;;20.67;64.12
8140;BME280;4111;50.972;7.072;2022-10-16T12:12:53;101134.72;;;20.72;64.17
8140;BME280;4111;50.972;7.072;2022-10-16T12:15:23;101138.38;;;20.67;64.57
8140;BME280;4111;50.972;7.072;2022-10-16T12:18:21;101154.19;;;20.62;63.56
8140;BME280;4111;50.972;7.072;2022-10-16T12:20:55;101163.66;;;20.55;63.08
8140;BME280;4111;50.972;7.072;2022-10-16T12:23:25;101152.44;;;20.52;62.69
8140;BME280;4111;50.972;7.072;2022-10-16T12:25:57;101155.50;;;20.50;62.42
8140;BME280;4111;50.972;7.072;2022-10-16T12:28:32;101140.16;;;20.44;62.17
8140;BME280;4111;50.972;7.072;2022-10-16T12:31:02;101145.06;;;20.47;62.07
8140;BME280;4111;50.972;7.072;2022-10-16T12:33:38;101148.75;;;20.56;62.23
8140;BME280;4111;50.972;7.072;2022-10-16T12:36:14;101141.25;;;20.62;62.18
8140;BME280;4111;50.972;7.072;2022-10-16T12:38:51;101139.00;;;20.64;62.29
8140;BME280;4111;50.972;7.072;2022-10-16T12:41:30;101134.50;;;20.68;62.19
8140;BME280;4111;50.972;7.072;2022-10-16T12:43:57;101126.75;;;20.84;61.87
8140;BME280;4111;50.972;7.072;2022-10-16T12:46:35;101118.75;;;20.83;61.36
8140;BME280;4111;50.972;7.072;2022-10-16T12:49:22;101111.91;;;20.94;61.46
8140;BME280;4111;50.972;7.072;2022-10-16T12:51:55;101122.25;;;20.88;62.11
8140;BME280;4111;50.972;7.072;2022-10-16T12:54:29;101114.03;;;20.97;61.83
8140;BME280;4111;50.972;7.072;2022-10-16T13:11:19;101126.66;;;20.75;62.81
8140;BME280;4111;50.972;7.072;2022-10-16T13:17:11;101124.56;;;20.67;62.78
8140;BME280;4111;50.972;7.072;2022-10-16T13:30:19;101134.25;;;20.51;63.59
8140;BME280;4111;50.972;7.072;2022-10-16T13:32:50;101136.50;;;20.49;63.78
8140;BME280;4111;50.972;7.072;2022-10-16T13:35:21;101128.22;;;20.49;63.48
8140;BME280;4111;50.972;7.072;2022-10-16T13:37:48;101129.53;;;20.51;64.28
8140;BME280;4111;50.972;7.072;2022-10-16T13:40:23;101134.66;;;20.58;64.60
8140;BME280;4111;50.972;7.072;2022-10-16T13:42:51;101138.66;;;20.52;64.90
8140;BME280;4111;50.972;7.072;2022-10-16T13:45:28;101136.91;;;20.56;64.83
8140;BME280;4111;50.972;7.072;2022-10-16T13:48:05;101148.34;;;20.49;65.06
8140;BME280;4111;50.972;7.072;2022-10-16T13:50:32;101146.91;;;20.52;64.98
8140;BME280;4111;50.972;7.072;2022-10-16T13:53:06;101150.03;;;20.64;64.76
8140;BME280;4111;50.972;7.072;2022-10-16T13:55:33;101141.75;;;20.64;65.46
8140;BME280;4111;50.972;7.072;2022-10-16T13:58:12;101130.22;;;20.76;65.28
8140;BME280;4111;50.972;7.072;2022-10-16T14:00:39;101124.19;;;20.88;65.44
8140;BME280;4111;50.972;7.072;2022-10-16T14:03:13;101126.94;;;20.88;65.36
8140;BME280;4111;50.972;7.072;2022-10-16T14:05:49;101123.88;;;21.03;65.05
8140;BME280;4111;50.972;7.072;2022-10-16T14:08:16;101132.56;;;20.96;65.39
8140;BME280;4111;50.972;7.072;2022-10-16T14:10:47;101133.69;;;20.82;65.66
8140;BME280;4111;50.972;7.072;2022-10-16T14:13:17;101127.75;;;20.74;66.04
8140;BME280;4111;50.972;7.072;2022-10-16T14:15:49;101140.03;;;20.68;66.21
8140;BME280;4111;50.972;7.072;2022-10-16T14:18:21;101135.09;;;20.65;66.50
8140;BME280;4111;50.972;7.072;2022-10-16T14:20:49;101151.28;;;20.72;66.82
8140;BME280;4111;50.972;7.072;2022-10-16T14:23:36;101147.16;;;20.69;66.90
8140;BME280;4111;50.972;7.072;2022-10-16T14:28:37;101121.41;;;20.60;67.39
8140;BME280;4111;50.972;7.072;2022-10-16T14:31:24;101124.75;;;20.57;68.00
8140;BME280;4111;50.972;7.072;2022-10-16T14:33:50;101128.13;;;20.54;68.13
8140;BME280;4111;50.972;7.072;2022-10-16T14:36:17;101124.00;;;20.51;68.60
8140;BME280;4111;50.972;7.072;2022-10-16T14:41:41;101109.91;;;20.53;69.11
8140;BME280;4111;50.972;7.072;2022-10-16T14:44:10;101117.69;;;20.51;69.34
8140;BME280;4111;50.972;7.072;2022-10-16T14:46:39;101117.47;;;20.47;69.83
8140;BME280;4111;50.972;7.072;2022-10-16T14:51:40;101113.38;;;20.31;70.55
8140;BME280;4111;50.972;7.072;2022-10-16T14:54:12;101120.50;;;20.32;70.94
8140;BME280;4111;50.972;7.072;2022-10-16T14:56:49;101121.41;;;20.27;71.33
8140;BME280;4111;50.972;7.072;2022-10-16T14:59:27;101125.00;;;20.28;71.28
8140;BME280;4111;50.972;7.072;2022-10-16T15:01:55;101132.44;;;20.27;71.53
8140;BME280;4111;50.972;7.072;2022-10-16T15:04:22;101132.38;;;20.32;71.75
8140;BME280;4111;50.972;7.072;2022-10-16T15:06:48;101135.44;;;20.31;71.88